createdAt,value
2023-05-09T00:00:38.088Z,0
2023-05-09T00:02:20.471Z,0
2023-05-09T00:03:58.937Z,0
2023-05-09T00:05:39.282Z,0
2023-05-09T00:07:19.568Z,0
2023-05-09T00:08:59.950Z,0
2023-05-09T00:10:40.366Z,0
2023-05-09T00:12:20.715Z,0
2023-05-09T00:14:01.159Z,0
2023-05-09T00:15:41.692Z,0
2023-05-09T00:17:22.096Z,0
2023-05-09T00:19:02.431Z,0
2023-05-09T00:20:42.882Z,0
2023-05-09T00:22:23.273Z,0
2023-05-09T00:24:03.664Z,0
2023-05-09T00:25:44.161Z,0
2023-05-09T00:27:24.530Z,0
2023-05-09T00:29:04.928Z,0
2023-05-09T00:30:45.373Z,0
2023-05-09T00:32:25.756Z,0
2023-05-09T00:34:06.064Z,0
2023-05-09T00:35:46.477Z,0
2023-05-09T00:37:26.957Z,0
2023-05-09T00:39:07.290Z,0
2023-05-09T00:40:47.677Z,0
2023-05-09T00:42:28.041Z,0
2023-05-09T00:44:08.372Z,0
2023-05-09T00:45:48.672Z,0
2023-05-09T00:47:29.022Z,0
2023-05-09T00:49:09.373Z,0
2023-05-09T00:50:49.819Z,0
2023-05-09T00:52:30.278Z,0
2023-05-09T00:54:10.709Z,0
2023-05-09T00:55:51.144Z,0
2023-05-09T00:57:31.533Z,0
2023-05-09T00:59:11.942Z,0
2023-05-09T01:00:52.357Z,0
2023-05-09T01:02:32.859Z,0
2023-05-09T01:04:13.210Z,0
2023-05-09T01:05:53.632Z,0
2023-05-09T01:07:34.045Z,0
2023-05-09T01:09:14.405Z,0
2023-05-09T01:10:54.885Z,0
2023-05-09T01:12:35.350Z,0
2023-05-09T01:14:15.750Z,0
2023-05-09T01:15:56.171Z,0
2023-05-09T01:17:36.447Z,0
2023-05-09T01:19:16.824Z,0
2023-05-09T01:20:57.216Z,0
2023-05-09T01:22:37.576Z,0
2023-05-09T01:24:17.986Z,0
2023-05-09T01:25:58.460Z,0
2023-05-09T01:27:38.867Z,0
2023-05-09T01:29:19.301Z,0
2023-05-09T01:30:59.756Z,0
2023-05-09T01:32:40.155Z,0
2023-05-09T01:34:20.515Z,0
2023-05-09T01:36:00.995Z,0
2023-05-09T01:37:41.410Z,0
2023-05-09T01:39:21.807Z,0
2023-05-09T01:41:02.158Z,0
2023-05-09T01:42:42.660Z,0
2023-05-09T01:44:23.145Z,0
2023-05-09T01:46:03.506Z,0
2023-05-09T01:47:43.955Z,0
2023-05-09T01:49:24.272Z,0
2023-05-09T01:51:04.583Z,0
2023-05-09T01:52:45.001Z,0
2023-05-09T01:54:25.324Z,0
2023-05-09T01:56:05.840Z,0
2023-05-09T01:57:46.101Z,0
2023-05-09T01:59:26.378Z,0
2023-05-09T02:01:06.742Z,0
2023-05-09T02:02:47.289Z,0
2023-05-09T02:04:27.512Z,0
2023-05-09T02:06:07.849Z,0
2023-05-09T02:07:48.273Z,0
2023-05-09T02:09:28.664Z,0
2023-05-09T02:11:09.018Z,0
2023-05-09T02:12:49.471Z,0
2023-05-09T02:14:29.811Z,0
2023-05-09T02:16:10.442Z,0
2023-05-09T02:17:50.777Z,0
2023-05-09T02:19:31.139Z,0
2023-05-09T02:21:11.601Z,0
2023-05-09T02:22:51.973Z,0
2023-05-09T02:24:32.378Z,0
2023-05-09T02:26:12.886Z,0
2023-05-09T02:27:53.317Z,0
2023-05-09T02:29:33.729Z,0
2023-05-09T02:31:14.147Z,0
2023-05-09T02:32:54.640Z,0
2023-05-09T02:34:34.947Z,0
2023-05-09T02:36:15.398Z,0
2023-05-09T02:37:55.793Z,0
2023-05-09T02:39:36.144Z,0
2023-05-09T02:41:16.542Z,0
2023-05-09T02:42:56.955Z,0
2023-05-09T02:44:37.368Z,0
2023-05-09T02:46:17.842Z,0
2023-05-09T02:47:58.276Z,0
2023-05-09T02:49:38.626Z,1
2023-05-09T02:51:19.081Z,0
2023-05-09T02:52:59.499Z,0
2023-05-09T02:54:39.912Z,1
2023-05-09T02:56:20.357Z,1
2023-05-09T02:58:12.884Z,1
2023-05-09T02:59:41.149Z,1
2023-05-09T03:01:21.533Z,2
2023-05-09T03:03:02.082Z,2
2023-05-09T03:04:42.350Z,4
2023-05-09T03:06:22.736Z,5
2023-05-09T03:08:03.154Z,6
2023-05-09T03:09:43.528Z,8
2023-05-09T03:11:23.837Z,10
2023-05-09T03:13:04.201Z,12
2023-05-09T03:14:44.491Z,17
2023-05-09T03:16:24.903Z,21
2023-05-09T03:18:05.156Z,27
2023-05-09T03:19:45.551Z,35
2023-05-09T03:21:25.961Z,44
2023-05-09T03:23:06.350Z,56
2023-05-09T03:24:46.738Z,70
2023-05-09T03:26:27.156Z,86
2023-05-09T03:28:07.548Z,107
2023-05-09T03:29:47.957Z,130
2023-05-09T03:31:28.373Z,157
2023-05-09T03:33:08.828Z,188
2023-05-09T03:34:49.089Z,225
2023-05-09T03:36:29.576Z,263
2023-05-09T03:38:10.041Z,307
2023-05-09T03:39:50.430Z,358
2023-05-09T03:41:30.845Z,416
2023-05-09T03:43:11.244Z,478
2023-05-09T03:44:51.665Z,543
2023-05-09T03:46:32.095Z,612
2023-05-09T03:48:12.518Z,683
2023-05-09T03:49:52.915Z,759
2023-05-09T03:51:33.268Z,839
2023-05-09T03:53:13.587Z,930
2023-05-09T03:54:53.884Z,1019
2023-05-09T03:56:34.179Z,1115
2023-05-09T03:58:14.497Z,1213
2023-05-09T03:59:54.935Z,1309
2023-05-09T04:01:35.285Z,1391
2023-05-09T04:03:15.661Z,1510
2023-05-09T04:04:55.935Z,1661
2023-05-09T04:06:36.232Z,1823
2023-05-09T04:08:16.694Z,1973
2023-05-09T04:09:57.084Z,2105
2023-05-09T04:11:37.488Z,2235
2023-05-09T04:13:17.968Z,2364
2023-05-09T04:14:58.356Z,2487
2023-05-09T04:16:38.804Z,2612
2023-05-09T04:18:19.111Z,2734
2023-05-09T04:19:59.511Z,2852
2023-05-09T04:21:39.911Z,2967
2023-05-09T04:23:20.263Z,3081
2023-05-09T04:25:00.685Z,3211
2023-05-09T04:26:41.065Z,3357
2023-05-09T04:28:21.399Z,3513
2023-05-09T04:30:01.798Z,3649
2023-05-09T04:31:42.259Z,3803
2023-05-09T04:33:22.602Z,3926
2023-05-09T04:35:03.025Z,4053
2023-05-09T04:36:43.492Z,4187
2023-05-09T04:38:23.939Z,4337
2023-05-09T04:40:04.339Z,4489
2023-05-09T04:41:44.656Z,4628
2023-05-09T04:43:24.942Z,4786
2023-05-09T04:45:05.253Z,4933
2023-05-09T04:46:45.628Z,5086
2023-05-09T04:48:25.883Z,5200
2023-05-09T04:50:06.210Z,5357
2023-05-09T04:51:46.620Z,5515
2023-05-09T04:53:27.087Z,5674
2023-05-09T04:55:07.426Z,5864
2023-05-09T04:56:50.085Z,6000
2023-05-09T04:58:28.286Z,6205
2023-05-09T05:00:08.800Z,6353
2023-05-09T05:01:49.267Z,6510
2023-05-09T05:03:29.606Z,6624
2023-05-09T05:05:12.342Z,6667
2023-05-09T05:06:50.566Z,6721
2023-05-09T05:08:30.990Z,6811
2023-05-09T05:10:11.261Z,6924
2023-05-09T05:12:00.702Z,7021
2023-05-09T05:13:32.197Z,7124
2023-05-09T05:15:13.004Z,7241
2023-05-09T05:16:53.095Z,7366
2023-05-09T05:18:33.412Z,7496
2023-05-09T05:20:13.724Z,7638
2023-05-09T05:21:54.023Z,7777
2023-05-09T05:23:34.364Z,7901
2023-05-09T05:25:15.021Z,8018
2023-05-09T05:26:55.130Z,8132
2023-05-09T05:28:35.590Z,8230
2023-05-09T05:30:16.060Z,8335
2023-05-09T05:31:56.469Z,8464
2023-05-09T05:33:36.885Z,8589
2023-05-09T05:35:17.564Z,8717
2023-05-09T05:36:57.771Z,8815
2023-05-09T05:38:38.243Z,8922
2023-05-09T05:40:18.610Z,9054
2023-05-09T05:41:59.073Z,9126
2023-05-09T05:43:39.568Z,11871
2023-05-09T05:45:19.971Z,14318
2023-05-09T05:47:00.392Z,12543
2023-05-09T05:48:40.731Z,16376
2023-05-09T05:50:21.164Z,15968
2023-05-09T05:52:01.590Z,15056
2023-05-09T05:53:41.987Z,13292
2023-05-09T05:55:22.490Z,9979
2023-05-09T05:57:02.879Z,9527
2023-05-09T05:58:43.346Z,9476
2023-05-09T06:00:23.801Z,9465
2023-05-09T06:02:04.274Z,9500
2023-05-09T06:03:44.711Z,9603
2023-05-09T06:05:25.020Z,9778
2023-05-09T06:07:05.466Z,9944
2023-05-09T06:08:45.940Z,10090
2023-05-09T06:10:26.369Z,10227
2023-05-09T06:12:06.757Z,10439
2023-05-09T06:13:47.212Z,10750
2023-05-09T06:15:27.612Z,10883
2023-05-09T06:17:08.129Z,10940
2023-05-09T06:18:48.520Z,10980
2023-05-09T06:20:29.000Z,11021
2023-05-09T06:22:09.341Z,11073
2023-05-09T06:24:02.023Z,11083
2023-05-09T06:25:30.159Z,11298
2023-05-09T06:27:10.504Z,15736
2023-05-09T06:28:50.931Z,24656
2023-05-09T06:30:31.408Z,27352
2023-05-09T06:32:11.915Z,23456
2023-05-09T06:33:52.324Z,27264
2023-05-09T06:35:32.757Z,28080
2023-05-09T06:37:13.184Z,30648
2023-05-09T06:38:53.619Z,34240
2023-05-09T06:40:34.043Z,35280
2023-05-09T06:42:14.405Z,33360
2023-05-09T06:43:54.825Z,34184
2023-05-09T06:45:35.243Z,34464
2023-05-09T06:47:15.604Z,34952
2023-05-09T06:48:55.997Z,38672
2023-05-09T06:50:36.460Z,39048
2023-05-09T06:52:16.807Z,33504
2023-05-09T06:53:57.233Z,32048
2023-05-09T06:55:37.646Z,30440
2023-05-09T06:57:18.012Z,34648
2023-05-09T06:58:58.453Z,46184
2023-05-09T07:00:38.866Z,39488
2023-05-09T07:02:19.271Z,34136
2023-05-09T07:03:59.736Z,43816
2023-05-09T07:05:40.222Z,38856
2023-05-09T07:07:20.693Z,22040
2023-05-09T07:09:01.040Z,26896
2023-05-09T07:10:41.478Z,48920
2023-05-09T07:12:21.921Z,51024
2023-05-09T07:14:02.263Z,38456
2023-05-09T07:15:43.308Z,37048
2023-05-09T07:17:24.112Z,48112
2023-05-09T07:19:03.442Z,56200
2023-05-09T07:20:43.849Z,44008
2023-05-09T07:22:24.315Z,37728
2023-05-09T07:24:04.803Z,49496
2023-05-09T07:25:45.260Z,58976
2023-05-09T07:27:25.696Z,49600
2023-05-09T07:29:06.052Z,45976
2023-05-09T07:30:46.488Z,63544
2023-05-09T07:32:26.984Z,63160
2023-05-09T07:34:07.325Z,46336
2023-05-09T07:35:47.769Z,40800
2023-05-09T07:37:28.181Z,57104
2023-05-09T07:39:08.589Z,65535
2023-05-09T07:40:48.954Z,64064
2023-05-09T07:42:29.387Z,45176
2023-05-09T07:44:09.816Z,46320
2023-05-09T07:45:50.275Z,38320
2023-05-09T07:47:30.680Z,33512
2023-05-09T07:49:11.063Z,33552
2023-05-09T07:50:51.501Z,36008
2023-05-09T07:52:31.960Z,38544
2023-05-09T07:54:12.309Z,40752
2023-05-09T07:55:52.779Z,44280
2023-05-09T07:57:33.192Z,48304
2023-05-09T07:59:13.568Z,50832
2023-05-09T08:00:53.953Z,38864
2023-05-09T08:02:34.407Z,42584
2023-05-09T08:04:14.851Z,40584
2023-05-09T08:05:55.180Z,35632
2023-05-09T08:07:35.561Z,37472
2023-05-09T08:09:15.957Z,52968
2023-05-09T08:10:56.399Z,65535
2023-05-09T08:12:36.807Z,55144
2023-05-09T08:14:17.265Z,36440
2023-05-09T08:15:57.794Z,33968
2023-05-09T08:17:38.134Z,44128
2023-05-09T08:19:18.608Z,65535
2023-05-09T08:20:59.014Z,41944
2023-05-09T08:22:39.420Z,41072
2023-05-09T08:24:19.820Z,42992
2023-05-09T08:26:00.287Z,60968
2023-05-09T08:27:40.636Z,65535
2023-05-09T08:29:21.016Z,65535
2023-05-09T08:31:01.501Z,65535
2023-05-09T08:32:41.892Z,65535
2023-05-09T08:34:22.271Z,59224
2023-05-09T08:36:02.704Z,43664
2023-05-09T08:37:43.137Z,37160
2023-05-09T08:39:23.662Z,33288
2023-05-09T08:41:04.106Z,36472
2023-05-09T08:42:44.509Z,49632
2023-05-09T08:44:25.020Z,34344
2023-05-09T08:46:05.491Z,38400
2023-05-09T08:47:45.884Z,47736
2023-05-09T08:49:26.263Z,44760
2023-05-09T08:51:06.701Z,46320
2023-05-09T08:52:47.062Z,44152
2023-05-09T08:54:27.486Z,47080
2023-05-09T08:56:07.907Z,56168
2023-05-09T08:57:48.348Z,65535
2023-05-09T08:59:28.811Z,48080
2023-05-09T09:01:09.133Z,46064
2023-05-09T09:02:49.636Z,65535
2023-05-09T09:04:30.041Z,46608
2023-05-09T09:06:10.438Z,41672
2023-05-09T09:07:50.723Z,65535
2023-05-09T09:09:31.141Z,65535
2023-05-09T09:11:11.590Z,65535
2023-05-09T09:12:51.985Z,65535
2023-05-09T09:14:32.494Z,65535
2023-05-09T09:16:12.968Z,65535
2023-05-09T09:17:53.411Z,65535
2023-05-09T09:19:33.731Z,50544
2023-05-09T09:21:14.167Z,65535
2023-05-09T09:22:54.476Z,65535
2023-05-09T09:24:34.821Z,65535
2023-05-09T09:26:15.423Z,65535
2023-05-09T09:27:55.743Z,65535
2023-05-09T09:29:36.209Z,65535
2023-05-09T09:31:17.223Z,65535
2023-05-09T09:32:56.981Z,65535
2023-05-09T09:34:37.394Z,65535
2023-05-09T09:36:17.756Z,65535
2023-05-09T09:37:59.918Z,64424
2023-05-09T09:39:38.632Z,65535
2023-05-09T09:41:19.133Z,65535
2023-05-09T09:42:59.404Z,65535
2023-05-09T09:44:39.859Z,65535
2023-05-09T09:46:20.343Z,65535
2023-05-09T09:48:00.805Z,61904
2023-05-09T09:49:41.202Z,54520
2023-05-09T09:51:21.673Z,65535
2023-05-09T09:53:02.109Z,59024
2023-05-09T09:54:42.557Z,65535
2023-05-09T09:56:23.022Z,65535
2023-05-09T09:58:03.468Z,65535
2023-05-09T09:59:43.916Z,65535
2023-05-09T10:01:24.355Z,65535
2023-05-09T10:03:04.785Z,65535
2023-05-09T10:04:45.169Z,65535
2023-05-09T10:06:25.539Z,64648
2023-05-09T10:08:05.899Z,65535
2023-05-09T10:09:46.339Z,65535
2023-05-09T10:11:26.788Z,65535
2023-05-09T10:13:07.188Z,51280
2023-05-09T10:14:47.543Z,45888
2023-05-09T10:16:42.693Z,43472
2023-05-09T10:18:08.506Z,45688
2023-05-09T10:19:48.669Z,49992
2023-05-09T10:21:29.128Z,47576
2023-05-09T10:23:09.542Z,53424
2023-05-09T10:24:49.942Z,53128
2023-05-09T10:26:30.356Z,59040
2023-05-09T10:28:10.732Z,61176
2023-05-09T10:29:51.138Z,61600
2023-05-09T10:31:31.643Z,52120
2023-05-09T10:33:12.034Z,56144
2023-05-09T10:34:52.499Z,55088
2023-05-09T10:36:32.927Z,65535
2023-05-09T10:38:13.382Z,59152
2023-05-09T10:39:53.815Z,49888
2023-05-09T10:41:34.311Z,52536
2023-05-09T10:43:14.714Z,51312
2023-05-09T10:44:55.125Z,56704
2023-05-09T10:46:35.530Z,50216
2023-05-09T10:48:15.928Z,51960
2023-05-09T10:49:56.387Z,51512
2023-05-09T10:51:36.868Z,50584
2023-05-09T10:53:17.326Z,49704
2023-05-09T10:54:57.727Z,48664
2023-05-09T10:56:38.172Z,49096
2023-05-09T10:58:18.598Z,56200
2023-05-09T10:59:58.992Z,65535
2023-05-09T11:01:39.725Z,65535
2023-05-09T11:03:19.986Z,65535
2023-05-09T11:05:00.332Z,65535
2023-05-09T11:06:40.690Z,55200
2023-05-09T11:08:21.085Z,53800
2023-05-09T11:10:01.519Z,53616
2023-05-09T11:11:41.879Z,56944
2023-05-09T11:13:22.286Z,62448
2023-05-09T11:15:02.706Z,65535
2023-05-09T11:16:43.201Z,49088
2023-05-09T11:18:23.409Z,47960
2023-05-09T11:20:03.808Z,48800
2023-05-09T11:21:44.201Z,53640
2023-05-09T11:23:24.685Z,53448
2023-05-09T11:25:05.112Z,53936
2023-05-09T11:26:45.500Z,55120
2023-05-09T11:28:25.913Z,49040
2023-05-09T11:30:06.407Z,44712
2023-05-09T11:31:46.820Z,44160
2023-05-09T11:33:27.141Z,48832
2023-05-09T11:35:07.511Z,51640
2023-05-09T11:36:47.751Z,49384
2023-05-09T11:38:28.145Z,44248
2023-05-09T11:40:08.587Z,43960
2023-05-09T11:41:48.910Z,49528
2023-05-09T11:43:29.358Z,40264
2023-05-09T11:45:09.750Z,38232
2023-05-09T11:46:50.219Z,35960
2023-05-09T11:48:30.692Z,40528
2023-05-09T11:50:11.148Z,44128
2023-05-09T11:51:51.531Z,42104
2023-05-09T11:53:31.965Z,38816
2023-05-09T11:55:12.918Z,35640
2023-05-09T11:56:52.851Z,34712
2023-05-09T11:58:33.353Z,36624
2023-05-09T12:00:13.742Z,45176
2023-05-09T12:01:54.106Z,65535
2023-05-09T12:03:34.549Z,65535
2023-05-09T12:05:15.201Z,65535
2023-05-09T12:06:55.388Z,65535
2023-05-09T12:08:35.759Z,47672
2023-05-09T12:10:16.309Z,50448
2023-05-09T12:11:56.562Z,54720
2023-05-09T12:13:37.028Z,52064
2023-05-09T12:15:18.002Z,51384
2023-05-09T12:16:57.966Z,65535
2023-05-09T12:18:38.422Z,44856
2023-05-09T12:20:18.831Z,48120
2023-05-09T12:21:59.246Z,50872
2023-05-09T12:23:39.652Z,46168
2023-05-09T12:25:20.054Z,46160
2023-05-09T12:27:00.578Z,47040
2023-05-09T12:28:41.095Z,44560
2023-05-09T12:30:21.488Z,53256
2023-05-09T12:32:01.964Z,49864
2023-05-09T12:33:42.481Z,47472
2023-05-09T12:35:22.912Z,65535
2023-05-09T12:37:03.388Z,65535
2023-05-09T12:38:43.769Z,49344
2023-05-09T12:40:24.180Z,61728
2023-05-09T12:42:04.567Z,59280
2023-05-09T12:43:44.998Z,57152
2023-05-09T12:45:25.437Z,65535
2023-05-09T12:47:05.899Z,47864
2023-05-09T12:48:46.276Z,45912
2023-05-09T12:50:26.729Z,41544
2023-05-09T12:52:09.122Z,44936
2023-05-09T12:53:47.444Z,55528
2023-05-09T12:55:27.874Z,44408
2023-05-09T12:57:08.267Z,51928
2023-05-09T12:58:48.632Z,44544
2023-05-09T13:00:29.027Z,65535
2023-05-09T13:02:09.484Z,64776
2023-05-09T13:03:49.822Z,65535
2023-05-09T13:05:30.238Z,65535
2023-05-09T13:07:10.746Z,63256
2023-05-09T13:08:51.070Z,54288
2023-05-09T13:10:31.604Z,65535
2023-05-09T13:12:12.087Z,65535
2023-05-09T13:13:52.473Z,65535
2023-05-09T13:15:32.975Z,65535
2023-05-09T13:17:13.408Z,65535
2023-05-09T13:18:53.782Z,65535
2023-05-09T13:20:34.187Z,65535
2023-05-09T13:22:14.646Z,64432
2023-05-09T13:23:55.054Z,65535
2023-05-09T13:25:35.476Z,65535
2023-05-09T13:27:15.962Z,65535
2023-05-09T13:28:56.375Z,65535
2023-05-09T13:30:36.852Z,65535
2023-05-09T13:32:17.234Z,65535
2023-05-09T13:33:57.620Z,61944
2023-05-09T13:35:38.028Z,65535
2023-05-09T13:37:18.375Z,65535
2023-05-09T13:38:58.711Z,65535
2023-05-09T13:40:39.157Z,65535
2023-05-09T13:42:19.572Z,65535
2023-05-09T13:43:59.888Z,51576
2023-05-09T13:45:40.359Z,65535
2023-05-09T13:47:20.688Z,65535
2023-05-09T13:49:01.160Z,62064
2023-05-09T13:50:41.620Z,57096
2023-05-09T13:52:21.994Z,36008
2023-05-09T13:54:02.438Z,39104
2023-05-09T13:55:42.873Z,41128
2023-05-09T13:57:23.279Z,51704
2023-05-09T13:59:03.698Z,49088
2023-05-09T14:00:44.051Z,54784
2023-05-09T14:02:24.561Z,45920
2023-05-09T14:04:05.007Z,59256
2023-05-09T14:05:45.381Z,64112
2023-05-09T14:07:25.874Z,65535
2023-05-09T14:09:06.196Z,62720
2023-05-09T14:10:46.666Z,61736
2023-05-09T14:12:27.069Z,65535
2023-05-09T14:14:07.486Z,63168
2023-05-09T14:15:48.125Z,64544
2023-05-09T14:17:28.545Z,56568
2023-05-09T14:19:08.917Z,59904
2023-05-09T14:20:49.297Z,63232
2023-05-09T14:22:29.709Z,65535
2023-05-09T14:24:10.061Z,65535
2023-05-09T14:25:50.480Z,65535
2023-05-09T14:27:30.888Z,65535
2023-05-09T14:29:11.321Z,65535
2023-05-09T14:30:51.714Z,65535
2023-05-09T14:32:32.121Z,62880
2023-05-09T14:34:12.609Z,63168
2023-05-09T14:35:52.984Z,65535
2023-05-09T14:37:33.418Z,65136
2023-05-09T14:39:13.899Z,55968
2023-05-09T14:40:54.354Z,65535
2023-05-09T14:42:34.792Z,65535
2023-05-09T14:44:15.216Z,65535
2023-05-09T14:45:55.650Z,65535
2023-05-09T14:47:36.072Z,65535
2023-05-09T14:49:16.443Z,42472
2023-05-09T14:50:56.838Z,65535
2023-05-09T14:52:37.251Z,65535
2023-05-09T14:54:17.623Z,40752
2023-05-09T14:55:58.055Z,33912
2023-05-09T14:57:38.492Z,36672
2023-05-09T14:59:18.860Z,34504
2023-05-09T15:00:59.338Z,35080
2023-05-09T15:02:39.818Z,34648
2023-05-09T15:04:20.195Z,34880
2023-05-09T15:06:00.605Z,30856
2023-05-09T15:07:40.988Z,27376
2023-05-09T15:09:21.424Z,25464
2023-05-09T15:11:01.963Z,24896
2023-05-09T15:12:42.358Z,24680
2023-05-09T15:14:22.795Z,25112
2023-05-09T15:16:03.254Z,24664
2023-05-09T15:17:43.586Z,26440
2023-05-09T15:19:23.971Z,28184
2023-05-09T15:21:04.433Z,28328
2023-05-09T15:22:44.900Z,33384
2023-05-09T15:24:25.177Z,46328
2023-05-09T15:26:05.571Z,65535
2023-05-09T15:27:45.962Z,61264
2023-05-09T15:29:26.439Z,32608
2023-05-09T15:31:06.906Z,32200
2023-05-09T15:32:47.544Z,58928
2023-05-09T15:34:27.918Z,63528
2023-05-09T15:36:08.430Z,65535
2023-05-09T15:37:48.813Z,55664
2023-05-09T15:39:29.172Z,25296
2023-05-09T15:41:09.526Z,25000
2023-05-09T15:42:49.989Z,26536
2023-05-09T15:44:30.385Z,41032
2023-05-09T15:46:10.862Z,47568
2023-05-09T15:47:51.110Z,53240
2023-05-09T15:49:31.523Z,27544
2023-05-09T15:51:11.933Z,28328
2023-05-09T15:52:52.354Z,42184
2023-05-09T15:54:32.776Z,48280
2023-05-09T15:56:13.115Z,42064
2023-05-09T15:57:53.498Z,36784
2023-05-09T15:59:33.990Z,37736
2023-05-09T16:01:14.348Z,37616
2023-05-09T16:02:54.911Z,38320
2023-05-09T16:04:35.344Z,35328
2023-05-09T16:06:15.800Z,28320
2023-05-09T16:07:56.278Z,30112
2023-05-09T16:09:37.062Z,23096
2023-05-09T16:11:17.114Z,17152
2023-05-09T16:12:57.646Z,19576
2023-05-09T16:14:38.185Z,16544
2023-05-09T16:16:18.584Z,16284
2023-05-09T16:17:58.927Z,16888
2023-05-09T16:19:39.383Z,14350
2023-05-09T16:21:19.777Z,14193
2023-05-09T16:23:00.194Z,14114
2023-05-09T16:24:40.550Z,15180
2023-05-09T16:26:20.924Z,16368
2023-05-09T16:28:01.372Z,13944
2023-05-09T16:29:41.806Z,14271
2023-05-09T16:31:22.204Z,16368
2023-05-09T16:33:02.633Z,14434
2023-05-09T16:34:42.919Z,14510
2023-05-09T16:36:23.394Z,14144
2023-05-09T16:38:03.832Z,14009
2023-05-09T16:39:44.200Z,13899
2023-05-09T16:41:24.593Z,14020
2023-05-09T16:43:05.056Z,14185
2023-05-09T16:44:45.410Z,14122
2023-05-09T16:46:25.880Z,14378
2023-05-09T16:48:06.380Z,14632
2023-05-09T16:49:46.742Z,15352
2023-05-09T16:51:27.185Z,15169
2023-05-09T16:53:07.629Z,14744
2023-05-09T16:54:48.045Z,14688
2023-05-09T16:56:28.428Z,14297
2023-05-09T16:58:08.843Z,13531
2023-05-09T16:59:49.252Z,13058
2023-05-09T17:01:29.738Z,12665
2023-05-09T17:03:10.300Z,12288
2023-05-09T17:04:50.690Z,11769
2023-05-09T17:06:31.032Z,11396
2023-05-09T17:08:11.497Z,11054
2023-05-09T17:09:51.932Z,10754
2023-05-09T17:11:32.468Z,10405
2023-05-09T17:13:12.946Z,10006
2023-05-09T17:14:53.258Z,9589
2023-05-09T17:16:35.321Z,9197
2023-05-09T17:18:19.294Z,8807
2023-05-09T17:19:54.553Z,8423
2023-05-09T17:21:34.993Z,8119
2023-05-09T17:23:15.369Z,7883
2023-05-09T17:24:55.863Z,7662
2023-05-09T17:26:36.265Z,7476
2023-05-09T17:28:16.685Z,7157
2023-05-09T17:29:57.244Z,6877
2023-05-09T17:31:37.615Z,6648
2023-05-09T17:33:17.950Z,6485
2023-05-09T17:35:01.400Z,6228
2023-05-09T17:36:38.769Z,5949
2023-05-09T17:38:19.125Z,5647
2023-05-09T17:39:59.577Z,5461
2023-05-09T17:41:40.004Z,5353
2023-05-09T17:43:20.462Z,5223
2023-05-09T17:45:00.885Z,5058
2023-05-09T17:46:41.405Z,4927
2023-05-09T17:48:21.718Z,4865
2023-05-09T17:50:02.216Z,4874
2023-05-09T17:51:42.631Z,4864
2023-05-09T17:53:23.092Z,4790
2023-05-09T17:55:03.510Z,4726
2023-05-09T17:56:43.941Z,4626
2023-05-09T17:58:24.352Z,4494
2023-05-09T18:00:04.774Z,4333
2023-05-09T18:01:45.124Z,4131
2023-05-09T18:03:25.633Z,3931
2023-05-09T18:05:05.997Z,3723
2023-05-09T18:06:46.415Z,3502
2023-05-09T18:08:26.884Z,3287
2023-05-09T18:10:07.341Z,3058
2023-05-09T18:11:47.785Z,2827
2023-05-09T18:13:28.339Z,2629
2023-05-09T18:15:08.644Z,2488
2023-05-09T18:16:49.000Z,2368
2023-05-09T18:18:29.470Z,2252
2023-05-09T18:20:09.909Z,2122
2023-05-09T18:21:50.280Z,1984
2023-05-09T18:23:30.699Z,1854
2023-05-09T18:25:11.094Z,1739
2023-05-09T18:26:51.521Z,1629
2023-05-09T18:28:31.921Z,1520
2023-05-09T18:30:12.267Z,1399
2023-05-09T18:31:52.594Z,1284
2023-05-09T18:33:32.938Z,1171
2023-05-09T18:35:13.291Z,1064
2023-05-09T18:36:53.694Z,963
2023-05-09T18:38:34.173Z,870
2023-05-09T18:40:14.907Z,785
2023-05-09T18:41:55.050Z,707
2023-05-09T18:43:35.458Z,631
2023-05-09T18:45:15.888Z,563
2023-05-09T18:46:56.269Z,500
2023-05-09T18:48:36.640Z,442
2023-05-09T18:50:17.383Z,390
2023-05-09T18:51:57.450Z,343
2023-05-09T18:53:37.918Z,302
2023-05-09T18:55:18.365Z,267
2023-05-09T18:56:58.770Z,238
2023-05-09T18:58:39.165Z,210
2023-05-09T19:00:19.583Z,186
2023-05-09T19:01:59.971Z,163
2023-05-09T19:03:40.358Z,141
2023-05-09T19:05:20.699Z,122
2023-05-09T19:07:01.123Z,104
2023-05-09T19:08:41.528Z,88
2023-05-09T19:10:21.943Z,73
2023-05-09T19:12:02.283Z,60
2023-05-09T19:13:42.825Z,50
2023-05-09T19:15:23.122Z,40
2023-05-09T19:17:03.625Z,32
2023-05-09T19:18:43.985Z,25
2023-05-09T19:20:24.468Z,20
2023-05-09T19:22:04.901Z,16
2023-05-09T19:23:45.270Z,12
2023-05-09T19:25:25.738Z,10
2023-05-09T19:27:06.106Z,7
2023-05-09T19:28:46.542Z,6
2023-05-09T19:30:30.076Z,5
2023-05-09T19:32:07.410Z,3
2023-05-09T19:33:47.850Z,3
2023-05-09T19:35:28.246Z,2
2023-05-09T19:37:08.561Z,1
2023-05-09T19:38:48.867Z,2
2023-05-09T19:40:29.203Z,1
2023-05-09T19:42:09.532Z,1
2023-05-09T19:43:49.874Z,1
2023-05-09T19:45:30.139Z,1
2023-05-09T19:47:10.500Z,0
2023-05-09T19:48:50.923Z,0
2023-05-09T19:50:31.379Z,0
2023-05-09T19:52:11.709Z,0
2023-05-09T19:53:52.110Z,0
2023-05-09T19:55:32.496Z,0
2023-05-09T19:57:12.864Z,0
2023-05-09T19:58:53.283Z,0
2023-05-09T20:00:33.718Z,0
2023-05-09T20:02:21.238Z,0
2023-05-09T20:03:54.716Z,0
2023-05-09T20:05:35.044Z,0
2023-05-09T20:07:15.491Z,0
2023-05-09T20:08:55.880Z,0
2023-05-09T20:10:36.361Z,0
2023-05-09T20:12:19.797Z,0
2023-05-09T20:13:57.101Z,0
2023-05-09T20:15:37.489Z,0
2023-05-09T20:17:17.922Z,0
2023-05-09T20:18:58.325Z,0
2023-05-09T20:20:38.694Z,0
2023-05-09T20:22:19.112Z,0
2023-05-09T20:23:59.546Z,0
2023-05-09T20:25:39.887Z,0
2023-05-09T20:27:20.274Z,0
2023-05-09T20:29:00.725Z,0
2023-05-09T20:30:41.213Z,0
2023-05-09T20:32:21.627Z,0
2023-05-09T20:34:02.035Z,0
2023-05-09T20:35:42.461Z,0
2023-05-09T20:37:22.818Z,0
2023-05-09T20:39:03.277Z,0
2023-05-09T20:40:43.762Z,0
2023-05-09T20:42:24.220Z,0
2023-05-09T20:44:04.580Z,0
2023-05-09T20:45:45.053Z,0
2023-05-09T20:47:25.379Z,0
2023-05-09T20:49:05.765Z,0
2023-05-09T20:50:46.168Z,0
2023-05-09T20:52:26.558Z,0
2023-05-09T20:54:06.921Z,0
2023-05-09T20:55:49.017Z,0
2023-05-09T20:57:27.643Z,0
2023-05-09T20:59:08.091Z,0
2023-05-09T21:00:48.494Z,0
2023-05-09T21:02:29.006Z,0
2023-05-09T21:04:09.238Z,0
2023-05-09T21:05:49.552Z,0
2023-05-09T21:07:29.862Z,0
2023-05-09T21:09:10.214Z,0
2023-05-09T21:10:50.644Z,0
2023-05-09T21:12:31.009Z,0
2023-05-09T21:14:11.437Z,0
2023-05-09T21:15:51.863Z,0
2023-05-09T21:17:32.298Z,0
2023-05-09T21:19:12.681Z,0
2023-05-09T21:20:53.137Z,0
2023-05-09T21:22:33.570Z,0
2023-05-09T21:24:14.010Z,0
2023-05-09T21:25:54.438Z,0
2023-05-09T21:27:34.930Z,0
2023-05-09T21:29:15.289Z,0
2023-05-09T21:30:55.770Z,0
2023-05-09T21:32:36.177Z,0
2023-05-09T21:34:16.580Z,0
2023-05-09T21:35:56.960Z,0
2023-05-09T21:37:37.369Z,0
2023-05-09T21:39:17.805Z,0
2023-05-09T21:40:58.155Z,0
2023-05-09T21:42:38.629Z,0
2023-05-09T21:44:19.052Z,0
2023-05-09T21:45:59.500Z,0
2023-05-09T21:47:39.926Z,0
2023-05-09T21:49:21.585Z,0
2023-05-09T21:51:00.712Z,0
2023-05-09T21:52:41.111Z,0
2023-05-09T21:54:21.580Z,0
2023-05-09T21:56:01.966Z,0
2023-05-09T21:57:42.383Z,0
2023-05-09T21:59:22.726Z,0
2023-05-09T22:01:03.124Z,0
2023-05-09T22:02:43.589Z,0
2023-05-09T22:04:23.982Z,0
2023-05-09T22:06:04.342Z,0
2023-05-09T22:07:44.743Z,0
2023-05-09T22:09:25.198Z,0
2023-05-09T22:11:05.609Z,0
2023-05-09T22:12:46.143Z,0
2023-05-09T22:14:26.494Z,0
2023-05-09T22:16:06.852Z,0
2023-05-09T22:17:47.262Z,0
2023-05-09T22:19:27.576Z,0
2023-05-09T22:21:07.993Z,0
2023-05-09T22:22:48.424Z,0
2023-05-09T22:24:28.820Z,0
2023-05-09T22:26:09.172Z,0
2023-05-09T22:27:49.611Z,0
2023-05-09T22:29:30.015Z,0
2023-05-09T22:31:10.349Z,0
2023-05-09T22:32:50.754Z,0
2023-05-09T22:34:31.148Z,0
2023-05-09T22:36:11.514Z,0